sensor_id;sensor_type;location;lat;lon;timestamp;pressure;altitude;pressure_sealevel;temperature;humidity
37878;BME280;23715;53.652;8.516;2023-03-14T00:01:32;98776.34;;;11.67;100.00
37878;BME280;23715;53.652;8.516;2023-03-14T00:32:37;98739.02;;;11.27;100.00
37878;BME280;23715;53.652;8.516;2023-03-14T01:03:53;98743.48;;;11.20;100.00
37878;BME280;23715;53.652;8.516;2023-03-14T01:24:44;98731.38;;;11.05;100.00
37878;BME280;23715;53.652;8.516;2023-03-14T01:30:03;98735.86;;;11.24;100.00
37878;BME280;23715;53.652;8.516;2023-03-14T01:35:05;98720.58;;;11.35;100.00
37878;BME280;23715;53.652;8.516;2023-03-14T01:51:13;98675.94;;;11.41;100.00
37878;BME280;23715;53.652;8.516;2023-03-14T02:34:18;98687.52;;;11.41;100.00
37878;BME280;23715;53.652;8.516;2023-03-14T02:39:35;98703.00;;;11.28;100.00
37878;BME280;23715;53.652;8.516;2023-03-14T02:44:31;98718.03;;;11.12;100.00
37878;BME280;23715;53.652;8.516;2023-03-14T02:49:32;98745.42;;;11.11;100.00
37878;BME280;23715;53.652;8.516;2023-03-14T02:54:33;98755.58;;;11.20;100.00
37878;BME280;23715;53.652;8.516;2023-03-14T02:59:33;98756.34;;;11.14;100.00
37878;BME280;23715;53.652;8.516;2023-03-14T03:04:35;98767.09;;;11.14;100.00
37878;BME280;23715;53.652;8.516;2023-03-14T03:09:35;98787.55;;;11.04;100.00
37878;BME280;23715;53.652;8.516;2023-03-14T03:14:35;98794.30;;;11.00;100.00
37878;BME280;23715;53.652;8.516;2023-03-14T03:19:37;98809.16;;;10.77;100.00
37878;BME280;23715;53.652;8.516;2023-03-14T03:24:38;98813.55;;;10.59;100.00
37878;BME280;23715;53.652;8.516;2023-03-14T03:29:38;98831.97;;;10.47;100.00
37878;BME280;23715;53.652;8.516;2023-03-14T03:34:39;98831.88;;;10.37;100.00
37878;BME280;23715;53.652;8.516;2023-03-14T03:39:40;98845.27;;;10.41;100.00
37878;BME280;23715;53.652;8.516;2023-03-14T03:44:40;98836.70;;;10.41;100.00
37878;BME280;23715;53.652;8.516;2023-03-14T03:49:41;98838.30;;;10.50;100.00
37878;BME280;23715;53.652;8.516;2023-03-14T03:54:42;98844.13;;;10.58;100.00
37878;BME280;23715;53.652;8.516;2023-03-14T03:59:42;98845.07;;;10.65;100.00
37878;BME280;23715;53.652;8.516;2023-03-14T04:04:43;98827.72;;;10.53;100.00
37878;BME280;23715;53.652;8.516;2023-03-14T04:09:44;98833.75;;;10.55;100.00
37878;BME280;23715;53.652;8.516;2023-03-14T04:14:46;98822.66;;;10.54;100.00
37878;BME280;23715;53.652;8.516;2023-03-14T04:19:48;98812.59;;;10.52;100.00
37878;BME280;23715;53.652;8.516;2023-03-14T04:24:51;98807.70;;;10.55;100.00
37878;BME280;23715;53.652;8.516;2023-03-14T04:29:53;98798.21;;;10.45;100.00
37878;BME280;23715;53.652;8.516;2023-03-14T04:34:55;98790.11;;;10.49;100.00
37878;BME280;23715;53.652;8.516;2023-03-14T04:39:55;98783.64;;;10.58;100.00
37878;BME280;23715;53.652;8.516;2023-03-14T04:45:00;98775.58;;;10.58;100.00
37878;BME280;23715;53.652;8.516;2023-03-14T04:50:03;98768.83;;;10.43;100.00
37878;BME280;23715;53.652;8.516;2023-03-14T04:55:03;98755.17;;;10.49;100.00
37878;BME280;23715;53.652;8.516;2023-03-14T05:00:04;98757.33;;;10.53;100.00
37878;BME280;23715;53.652;8.516;2023-03-14T05:05:10;98750.73;;;10.56;100.00
37878;BME280;23715;53.652;8.516;2023-03-14T05:10:15;98745.63;;;10.46;100.00
37878;BME280;23715;53.652;8.516;2023-03-14T05:15:29;98747.80;;;10.47;100.00
37878;BME280;23715;53.652;8.516;2023-03-14T05:20:40;98748.66;;;10.47;100.00
37878;BME280;23715;53.652;8.516;2023-03-14T05:25:44;98756.09;;;10.41;100.00
37878;BME280;23715;53.652;8.516;2023-03-14T05:31:08;98765.61;;;10.48;100.00
37878;BME280;23715;53.652;8.516;2023-03-14T05:36:19;98761.58;;;10.48;100.00
37878;BME280;23715;53.652;8.516;2023-03-14T05:41:23;98763.17;;;10.57;100.00
37878;BME280;23715;53.652;8.516;2023-03-14T05:46:37;98761.83;;;10.57;100.00
37878;BME280;23715;53.652;8.516;2023-03-14T05:51:51;98750.44;;;10.55;100.00
37878;BME280;23715;53.652;8.516;2023-03-14T05:56:53;98754.55;;;10.62;100.00
37878;BME280;23715;53.652;8.516;2023-03-14T06:02:11;98748.44;;;10.53;100.00
37878;BME280;23715;53.652;8.516;2023-03-14T06:07:13;98751.34;;;10.62;100.00
37878;BME280;23715;53.652;8.516;2023-03-14T06:12:14;98747.70;;;10.59;100.00
37878;BME280;23715;53.652;8.516;2023-03-14T06:17:15;98756.07;;;10.60;100.00
37878;BME280;23715;53.652;8.516;2023-03-14T06:22:20;98757.84;;;10.53;100.00
37878;BME280;23715;53.652;8.516;2023-03-14T06:27:20;98757.84;;;10.53;100.00
37878;BME280;23715;53.652;8.516;2023-03-14T06:32:22;98770.81;;;10.49;100.00
37878;BME280;23715;53.652;8.516;2023-03-14T06:37:25;98772.86;;;10.43;100.00
37878;BME280;23715;53.652;8.516;2023-03-14T06:42:25;98773.42;;;10.39;100.00
37878;BME280;23715;53.652;8.516;2023-03-14T06:47:25;98784.56;;;10.27;100.00
37878;BME280;23715;53.652;8.516;2023-03-14T06:52:27;98804.67;;;10.35;100.00
37878;BME280;23715;53.652;8.516;2023-03-14T06:57:28;98820.48;;;10.53;100.00
37878;BME280;23715;53.652;8.516;2023-03-14T07:02:27;98814.72;;;10.38;100.00
37878;BME280;23715;53.652;8.516;2023-03-14T07:07:29;98831.57;;;10.31;100.00
37878;BME280;23715;53.652;8.516;2023-03-14T07:12:29;98834.60;;;10.32;100.00
37878;BME280;23715;53.652;8.516;2023-03-14T07:17:30;98850.73;;;10.24;100.00
37878;BME280;23715;53.652;8.516;2023-03-14T07:22:31;98870.67;;;10.30;100.00
37878;BME280;23715;53.652;8.516;2023-03-14T07:27:36;98887.05;;;10.16;100.00
37878;BME280;23715;53.652;8.516;2023-03-14T07:32:36;98923.26;;;10.24;100.00
37878;BME280;23715;53.652;8.516;2023-03-14T07:37:36;98943.41;;;10.32;100.00
37878;BME280;23715;53.652;8.516;2023-03-14T07:42:37;98945.89;;;10.30;100.00
37878;BME280;23715;53.652;8.516;2023-03-14T07:47:45;98959.81;;;10.38;100.00
37878;BME280;23715;53.652;8.516;2023-03-14T07:52:45;98974.09;;;10.42;100.00
37878;BME280;23715;53.652;8.516;2023-03-14T07:57:45;98982.00;;;10.40;100.00
37878;BME280;23715;53.652;8.516;2023-03-14T08:02:46;98987.58;;;10.34;100.00
37878;BME280;23715;53.652;8.516;2023-03-14T08:07:46;99017.78;;;10.32;100.00
37878;BME280;23715;53.652;8.516;2023-03-14T08:12:46;99049.03;;;8.01;100.00
37878;BME280;23715;53.652;8.516;2023-03-14T08:17:47;99052.98;;;6.65;100.00
37878;BME280;23715;53.652;8.516;2023-03-14T08:22:49;99064.77;;;6.44;100.00
37878;BME280;23715;53.652;8.516;2023-03-14T08:27:49;99095.23;;;6.38;100.00
37878;BME280;23715;53.652;8.516;2023-03-14T08:32:49;99097.32;;;6.06;100.00
37878;BME280;23715;53.652;8.516;2023-03-14T08:42:50;99112.88;;;5.15;100.00
37878;BME280;23715;53.652;8.516;2023-03-14T08:47:50;99150.58;;;4.66;100.00
37878;BME280;23715;53.652;8.516;2023-03-14T08:52:51;99206.72;;;4.53;100.00
37878;BME280;23715;53.652;8.516;2023-03-14T08:57:51;99237.91;;;4.72;100.00
37878;BME280;23715;53.652;8.516;2023-03-14T09:02:51;99253.08;;;4.35;100.00
37878;BME280;23715;53.652;8.516;2023-03-14T09:07:51;99260.28;;;4.44;100.00
37878;BME280;23715;53.652;8.516;2023-03-14T09:12:52;99278.53;;;4.28;100.00
37878;BME280;23715;53.652;8.516;2023-03-14T09:17:52;99305.02;;;4.66;100.00
37878;BME280;23715;53.652;8.516;2023-03-14T09:22:54;99328.38;;;4.83;100.00
37878;BME280;23715;53.652;8.516;2023-03-14T09:27:54;99336.02;;;4.98;100.00
37878;BME280;23715;53.652;8.516;2023-03-14T09:32:54;99360.79;;;5.19;100.00
37878;BME280;23715;53.652;8.516;2023-03-14T09:37:56;99346.39;;;4.85;100.00
37878;BME280;23715;53.652;8.516;2023-03-14T09:42:56;99361.55;;;5.00;100.00
37878;BME280;23715;53.652;8.516;2023-03-14T09:47:58;99375.49;;;5.14;100.00
37878;BME280;23715;53.652;8.516;2023-03-14T09:53:09;99375.27;;;4.80;100.00
37878;BME280;23715;53.652;8.516;2023-03-14T09:58:11;99376.83;;;5.14;100.00
37878;BME280;23715;53.652;8.516;2023-03-14T10:08:15;99381.69;;;5.30;100.00
37878;BME280;23715;53.652;8.516;2023-03-14T10:13:26;99381.62;;;5.51;100.00
37878;BME280;23715;53.652;8.516;2023-03-14T10:18:30;99386.05;;;5.81;100.00
37878;BME280;23715;53.652;8.516;2023-03-14T10:23:33;99396.72;;;5.81;100.00
37878;BME280;23715;53.652;8.516;2023-03-14T10:28:41;99414.58;;;5.90;100.00
37878;BME280;23715;53.652;8.516;2023-03-14T10:33:41;99409.67;;;6.20;100.00
37878;BME280;23715;53.652;8.516;2023-03-14T10:38:41;99407.00;;;6.20;100.00
37878;BME280;23715;53.652;8.516;2023-03-14T10:43:42;99424.19;;;6.22;100.00
37878;BME280;23715;53.652;8.516;2023-03-14T10:48:43;99437.71;;;6.30;100.00
37878;BME280;23715;53.652;8.516;2023-03-14T10:53:49;99445.66;;;6.45;100.00
37878;BME280;23715;53.652;8.516;2023-03-14T10:58:52;99459.21;;;6.48;100.00
37878;BME280;23715;53.652;8.516;2023-03-14T11:03:57;99462.95;;;6.16;100.00
37878;BME280;23715;53.652;8.516;2023-03-14T11:09:06;99465.25;;;6.40;100.00
37878;BME280;23715;53.652;8.516;2023-03-14T11:14:17;99481.48;;;7.01;100.00
37878;BME280;23715;53.652;8.516;2023-03-14T11:19:31;99494.50;;;6.71;100.00
37878;BME280;23715;53.652;8.516;2023-03-14T11:35:41;99500.05;;;6.10;100.00
37878;BME280;23715;53.652;8.516;2023-03-14T11:40:40;99495.62;;;6.14;100.00
37878;BME280;23715;53.652;8.516;2023-03-14T11:45:43;99508.86;;;6.00;100.00
37878;BME280;23715;53.652;8.516;2023-03-14T11:50:44;99488.39;;;6.45;100.00
37878;BME280;23715;53.652;8.516;2023-03-14T11:55:47;99489.67;;;5.85;100.00
37878;BME280;23715;53.652;8.516;2023-03-14T12:00:51;99526.78;;;5.58;100.00
37878;BME280;23715;53.652;8.516;2023-03-14T12:06:13;99519.81;;;5.45;100.00
37878;BME280;23715;53.652;8.516;2023-03-14T12:16:27;99530.73;;;5.94;100.00
37878;BME280;23715;53.652;8.516;2023-03-14T12:37:21;99597.59;;;5.72;100.00
37878;BME280;23715;53.652;8.516;2023-03-14T12:42:37;99610.66;;;5.75;100.00
37878;BME280;23715;53.652;8.516;2023-03-14T13:03:56;99655.17;;;6.72;100.00
37878;BME280;23715;53.652;8.516;2023-03-14T13:08:57;99695.80;;;5.99;100.00
37878;BME280;23715;53.652;8.516;2023-03-14T13:13:58;99720.58;;;5.25;100.00
37878;BME280;23715;53.652;8.516;2023-03-14T13:19:13;99731.14;;;5.85;100.00
37878;BME280;23715;53.652;8.516;2023-03-14T13:24:24;99744.11;;;5.63;100.00
37878;BME280;23715;53.652;8.516;2023-03-14T13:34:58;99758.36;;;5.74;100.00
37878;BME280;23715;53.652;8.516;2023-03-14T13:39:58;99801.39;;;5.75;100.00
37878;BME280;23715;53.652;8.516;2023-03-14T13:45:03;99799.59;;;6.13;100.00
37878;BME280;23715;53.652;8.516;2023-03-14T13:50:04;99810.03;;;6.05;100.00
37878;BME280;23715;53.652;8.516;2023-03-14T13:55:13;99820.38;;;6.04;100.00
37878;BME280;23715;53.652;8.516;2023-03-14T14:00:32;99847.17;;;5.47;100.00
37878;BME280;23715;53.652;8.516;2023-03-14T14:05:12;99847.20;;;5.19;100.00
37878;BME280;23715;53.652;8.516;2023-03-14T14:10:13;99852.38;;;5.60;100.00
37878;BME280;23715;53.652;8.516;2023-03-14T14:25:21;99895.37;;;5.73;100.00
37878;BME280;23715;53.652;8.516;2023-03-14T14:30:30;99920.71;;;5.95;100.00
37878;BME280;23715;53.652;8.516;2023-03-14T14:35:37;99934.56;;;5.66;100.00
37878;BME280;23715;53.652;8.516;2023-03-14T14:40:43;99937.12;;;5.45;100.00
37878;BME280;23715;53.652;8.516;2023-03-14T14:45:42;99969.23;;;5.78;100.00
37878;BME280;23715;53.652;8.516;2023-03-14T14:51:05;99973.85;;;5.98;100.00
37878;BME280;23715;53.652;8.516;2023-03-14T14:56:26;99981.84;;;5.76;100.00
37878;BME280;23715;53.652;8.516;2023-03-14T15:01:37;99996.52;;;5.59;100.00
37878;BME280;23715;53.652;8.516;2023-03-14T15:06:52;100016.56;;;5.63;100.00
37878;BME280;23715;53.652;8.516;2023-03-14T15:11:53;100027.28;;;5.40;100.00
37878;BME280;23715;53.652;8.516;2023-03-14T15:21:56;100039.67;;;5.47;100.00
37878;BME280;23715;53.652;8.516;2023-03-14T15:26:56;100047.67;;;5.47;100.00
37878;BME280;23715;53.652;8.516;2023-03-14T15:31:56;100035.58;;;5.77;100.00
37878;BME280;23715;53.652;8.516;2023-03-14T15:37:00;100073.12;;;5.10;100.00
37878;BME280;23715;53.652;8.516;2023-03-14T15:42:02;100111.67;;;4.63;100.00
37878;BME280;23715;53.652;8.516;2023-03-14T15:47:23;100136.63;;;4.49;100.00
37878;BME280;23715;53.652;8.516;2023-03-14T15:52:23;100131.19;;;4.51;100.00
37878;BME280;23715;53.652;8.516;2023-03-14T16:02:49;100119.03;;;5.90;100.00
37878;BME280;23715;53.652;8.516;2023-03-14T16:08:09;100130.88;;;5.63;100.00
37878;BME280;23715;53.652;8.516;2023-03-14T16:13:09;100172.97;;;5.36;100.00
37878;BME280;23715;53.652;8.516;2023-03-14T16:18:10;100164.94;;;5.06;100.00
37878;BME280;23715;53.652;8.516;2023-03-14T16:23:12;100169.27;;;5.20;100.00
37878;BME280;23715;53.652;8.516;2023-03-14T16:28:13;100195.52;;;5.13;100.00
37878;BME280;23715;53.652;8.516;2023-03-14T16:33:15;100206.53;;;5.08;100.00
37878;BME280;23715;53.652;8.516;2023-03-14T16:38:35;100209.05;;;5.10;100.00
37878;BME280;23715;53.652;8.516;2023-03-14T16:43:36;100213.44;;;5.11;100.00
37878;BME280;23715;53.652;8.516;2023-03-14T16:53:37;100285.03;;;3.82;100.00
37878;BME280;23715;53.652;8.516;2023-03-14T16:58:37;100312.84;;;3.63;100.00
37878;BME280;23715;53.652;8.516;2023-03-14T17:03:42;100321.47;;;3.40;100.00
37878;BME280;23715;53.652;8.516;2023-03-14T17:08:43;100319.66;;;3.40;100.00
37878;BME280;23715;53.652;8.516;2023-03-14T17:13:43;100324.98;;;3.60;100.00
37878;BME280;23715;53.652;8.516;2023-03-14T17:23:44;100346.50;;;4.37;100.00
37878;BME280;23715;53.652;8.516;2023-03-14T17:34:05;100375.19;;;4.06;100.00
37878;BME280;23715;53.652;8.516;2023-03-14T17:39:05;100362.98;;;4.09;100.00
37878;BME280;23715;53.652;8.516;2023-03-14T17:44:08;100392.92;;;4.33;100.00
37878;BME280;23715;53.652;8.516;2023-03-14T17:49:08;100402.75;;;4.25;100.00
37878;BME280;23715;53.652;8.516;2023-03-14T17:54:08;100413.13;;;4.43;100.00
37878;BME280;23715;53.652;8.516;2023-03-14T17:59:10;100417.05;;;4.37;100.00
37878;BME280;23715;53.652;8.516;2023-03-14T18:04:10;100407.53;;;4.53;100.00
37878;BME280;23715;53.652;8.516;2023-03-14T18:09:11;100412.80;;;4.47;100.00
37878;BME280;23715;53.652;8.516;2023-03-14T18:14:12;100421.59;;;4.42;100.00
37878;BME280;23715;53.652;8.516;2023-03-14T18:19:16;100412.92;;;4.46;100.00
37878;BME280;23715;53.652;8.516;2023-03-14T18:24:17;100426.17;;;4.73;100.00
37878;BME280;23715;53.652;8.516;2023-03-14T18:29:17;100451.80;;;4.48;100.00
37878;BME280;23715;53.652;8.516;2023-03-14T18:34:18;100458.06;;;4.47;100.00
37878;BME280;23715;53.652;8.516;2023-03-14T18:39:18;100486.75;;;4.37;100.00
37878;BME280;23715;53.652;8.516;2023-03-14T18:44:19;100476.53;;;4.43;100.00
37878;BME280;23715;53.652;8.516;2023-03-14T18:49:20;100477.89;;;4.36;100.00
37878;BME280;23715;53.652;8.516;2023-03-14T18:54:21;100483.75;;;4.48;100.00
37878;BME280;23715;53.652;8.516;2023-03-14T18:59:21;100488.23;;;5.14;100.00
37878;BME280;23715;53.652;8.516;2023-03-14T19:04:21;100490.68;;;5.42;100.00
37878;BME280;23715;53.652;8.516;2023-03-14T19:09:22;100558.63;;;4.64;100.00
37878;BME280;23715;53.652;8.516;2023-03-14T19:14:22;100585.52;;;3.24;100.00
37878;BME280;23715;53.652;8.516;2023-03-14T19:19:22;100600.76;;;2.28;100.00
37878;BME280;23715;53.652;8.516;2023-03-14T19:24:23;100638.70;;;2.22;100.00
37878;BME280;23715;53.652;8.516;2023-03-14T19:29:23;100662.46;;;2.57;100.00
37878;BME280;23715;53.652;8.516;2023-03-14T19:34:23;100692.81;;;3.07;100.00
37878;BME280;23715;53.652;8.516;2023-03-14T19:39:23;100699.09;;;3.37;100.00
37878;BME280;23715;53.652;8.516;2023-03-14T19:44:24;100695.45;;;4.34;100.00
37878;BME280;23715;53.652;8.516;2023-03-14T19:49:26;100685.38;;;4.46;100.00
37878;BME280;23715;53.652;8.516;2023-03-14T19:54:26;100677.92;;;4.66;100.00
37878;BME280;23715;53.652;8.516;2023-03-14T19:59:26;100671.02;;;4.83;100.00
37878;BME280;23715;53.652;8.516;2023-03-14T20:04:27;100668.06;;;4.54;100.00
37878;BME280;23715;53.652;8.516;2023-03-14T20:09:27;100665.66;;;4.63;100.00
37878;BME280;23715;53.652;8.516;2023-03-14T20:14:27;100673.15;;;4.78;100.00
37878;BME280;23715;53.652;8.516;2023-03-14T20:19:28;100691.63;;;4.60;100.00
37878;BME280;23715;53.652;8.516;2023-03-14T20:24:29;100685.07;;;4.44;100.00
37878;BME280;23715;53.652;8.516;2023-03-14T20:29:30;100676.73;;;4.92;100.00
37878;BME280;23715;53.652;8.516;2023-03-14T20:34:30;100677.27;;;4.97;100.00
37878;BME280;23715;53.652;8.516;2023-03-14T20:39:31;100671.61;;;4.74;100.00
37878;BME280;23715;53.652;8.516;2023-03-14T20:44:32;100680.77;;;4.63;100.00
37878;BME280;23715;53.652;8.516;2023-03-14T20:49:32;100671.20;;;4.87;100.00
37878;BME280;23715;53.652;8.516;2023-03-14T20:54:32;100677.58;;;4.92;100.00
37878;BME280;23715;53.652;8.516;2023-03-14T20:59:33;100681.41;;;5.08;100.00
37878;BME280;23715;53.652;8.516;2023-03-14T21:04:33;100680.15;;;4.94;100.00
37878;BME280;23715;53.652;8.516;2023-03-14T21:09:33;100686.16;;;4.90;100.00
37878;BME280;23715;53.652;8.516;2023-03-14T21:14:33;100691.83;;;4.98;100.00
37878;BME280;23715;53.652;8.516;2023-03-14T21:19:33;100690.30;;;5.08;100.00
37878;BME280;23715;53.652;8.516;2023-03-14T21:24:33;100691.50;;;5.10;100.00
37878;BME280;23715;53.652;8.516;2023-03-14T21:29:34;100689.90;;;5.07;100.00
37878;BME280;23715;53.652;8.516;2023-03-14T21:34:35;100705.83;;;4.87;100.00
37878;BME280;23715;53.652;8.516;2023-03-14T21:39:35;100708.06;;;4.66;100.00
37878;BME280;23715;53.652;8.516;2023-03-14T21:44:36;100721.99;;;4.50;100.00
37878;BME280;23715;53.652;8.516;2023-03-14T21:49:36;100721.47;;;4.72;100.00
37878;BME280;23715;53.652;8.516;2023-03-14T21:54:36;100736.63;;;4.21;100.00
37878;BME280;23715;53.652;8.516;2023-03-14T21:59:37;100747.73;;;4.06;100.00
37878;BME280;23715;53.652;8.516;2023-03-14T22:04:37;100746.42;;;4.14;100.00
37878;BME280;23715;53.652;8.516;2023-03-14T22:09:40;100748.34;;;4.40;100.00
37878;BME280;23715;53.652;8.516;2023-03-14T22:14:40;100754.14;;;4.33;100.00
37878;BME280;23715;53.652;8.516;2023-03-14T22:19:41;100758.95;;;4.19;100.00
37878;BME280;23715;53.652;8.516;2023-03-14T22:24:41;100762.11;;;4.25;100.00
37878;BME280;23715;53.652;8.516;2023-03-14T22:29:41;100780.91;;;4.15;100.00
37878;BME280;23715;53.652;8.516;2023-03-14T22:34:41;100779.12;;;4.16;100.00
37878;BME280;23715;53.652;8.516;2023-03-14T22:39:41;100776.23;;;4.11;100.00
37878;BME280;23715;53.652;8.516;2023-03-14T22:44:41;100788.31;;;4.17;100.00
37878;BME280;23715;53.652;8.516;2023-03-14T22:49:41;100799.98;;;4.07;100.00
37878;BME280;23715;53.652;8.516;2023-03-14T22:54:42;100803.59;;;3.99;100.00
37878;BME280;23715;53.652;8.516;2023-03-14T22:59:42;100809.28;;;3.93;100.00
37878;BME280;23715;53.652;8.516;2023-03-14T23:04:42;100812.19;;;3.88;100.00
37878;BME280;23715;53.652;8.516;2023-03-14T23:09:43;100817.86;;;4.05;100.00
37878;BME280;23715;53.652;8.516;2023-03-14T23:14:43;100830.80;;;4.04;100.00
37878;BME280;23715;53.652;8.516;2023-03-14T23:19:43;100828.16;;;4.19;100.00
37878;BME280;23715;53.652;8.516;2023-03-14T23:24:43;100839.00;;;4.23;100.00
37878;BME280;23715;53.652;8.516;2023-03-14T23:29:46;100842.10;;;4.38;100.00
37878;BME280;23715;53.652;8.516;2023-03-14T23:34:46;100859.62;;;4.12;100.00
37878;BME280;23715;53.652;8.516;2023-03-14T23:39:46;100862.94;;;3.69;100.00
37878;BME280;23715;53.652;8.516;2023-03-14T23:44:46;100881.03;;;3.40;100.00
37878;BME280;23715;53.652;8.516;2023-03-14T23:49:46;100881.73;;;3.50;100.00
37878;BME280;23715;53.652;8.516;2023-03-14T23:54:45;100883.41;;;3.60;100.00
37878;BME280;23715;53.652;8.516;2023-03-14T23:59:46;100891.45;;;3.51;100.00
